Time;durP1;ratioP1;P1;durP2;ratioP2;P2;SDS_P1;SDS_P2;PMS_P1;PMS_P2;Temp;Humidity;BMP_temperature;BMP_pressure;BME280_temperature;BME280_humidity;BME280_pressure;Samples;Min_cycle;Max_cycle;Signal;HPM_P1;HPM_P2
2023/05/07 00:01:08;;;;;;;2.83;1.10;;;11.30;99.90;;;;;;5033686;28;20025;-82
2023/05/07 00:03:34;;;;;;;2.42;0.90;;;11.20;99.90;;;;;;5032055;28;20040;-82
2023/05/07 00:06:00;;;;;;;2.75;1.23;;;11.20;99.90;;;;;;5044566;28;20036;-82
2023/05/07 00:08:25;;;;;;;2.97;1.10;;;11.20;99.90;;;;;;5053598;28;20040;-82
2023/05/07 00:10:51;;;;;;;1.83;1.10;;;11.20;99.90;;;;;;5064455;28;20119;-82
2023/05/07 00:13:17;;;;;;;4.43;1.27;;;11.20;99.90;;;;;;5067940;28;20039;-81
2023/05/07 00:15:42;;;;;;;2.42;1.10;;;11.20;99.90;;;;;;5056153;28;20033;-82
2023/05/07 00:18:08;;;;;;;2.97;1.30;;;11.20;99.90;;;;;;5040226;28;20021;-82
2023/05/07 00:20:34;;;;;;;1.98;1.10;;;11.20;99.90;;;;;;5033746;28;20548;-82
2023/05/07 00:22:59;;;;;;;1.80;1.20;;;11.10;99.90;;;;;;5048933;28;20028;-82
2023/05/07 00:25:25;;;;;;;1.73;1.15;;;11.20;99.90;;;;;;5057180;28;20456;-82
2023/05/07 00:27:51;;;;;;;2.40;1.30;;;11.10;99.90;;;;;;5024888;28;20032;-82
2023/05/07 00:30:16;;;;;;;2.30;1.20;;;11.20;99.90;;;;;;5060053;28;20028;-82
2023/05/07 00:32:45;;;;;;;3.58;1.40;;;11.10;99.90;;;;;;5058831;28;20025;-82
2023/05/07 00:35:10;;;;;;;2.05;1.30;;;11.10;99.90;;;;;;5052973;28;20033;-82
2023/05/07 00:37:36;;;;;;;4.53;1.00;;;11.10;99.90;;;;;;5055099;28;20182;-82
2023/05/07 00:40:04;;;;;;;2.67;1.25;;;11.10;99.90;;;;;;5076817;28;20021;-82
2023/05/07 00:42:32;;;;;;;2.33;1.02;;;11.10;99.90;;;;;;5043053;28;20401;-82
2023/05/07 00:44:58;;;;;;;2.88;1.27;;;11.10;99.90;;;;;;5050502;28;20087;-82
2023/05/07 00:47:25;;;;;;;2.75;1.25;;;11.00;99.90;;;;;;5038848;28;20025;-82
2023/05/07 00:49:51;;;;;;;2.00;1.30;;;11.00;99.90;;;;;;5039931;28;20093;-82
2023/05/07 00:52:19;;;;;;;2.88;1.60;;;11.00;99.90;;;;;;5039951;28;20064;-82
2023/05/07 00:54:45;;;;;;;4.60;1.77;;;11.00;99.90;;;;;;5050241;28;20107;-82
2023/05/07 00:57:11;;;;;;;2.85;1.50;;;10.90;99.90;;;;;;5057751;28;20104;-82
2023/05/07 00:59:38;;;;;;;3.25;1.60;;;10.90;99.90;;;;;;5042420;28;20028;-82
2023/05/07 01:02:03;;;;;;;1.73;1.17;;;10.90;99.90;;;;;;5058780;28;20029;-82
2023/05/07 01:04:29;;;;;;;2.03;1.45;;;10.90;99.90;;;;;;5056643;28;20035;-83
2023/05/07 01:06:56;;;;;;;1.95;1.25;;;10.90;99.90;;;;;;5044469;28;20044;-82
2023/05/07 01:09:24;;;;;;;2.28;1.20;;;10.90;99.90;;;;;;5044759;28;20029;-82
2023/05/07 01:11:51;;;;;;;3.35;1.50;;;10.90;99.90;;;;;;5059970;28;20031;-82
2023/05/07 01:14:17;;;;;;;2.53;1.30;;;10.90;99.90;;;;;;5043114;28;20028;-82
2023/05/07 01:16:43;;;;;;;2.25;1.30;;;10.90;99.90;;;;;;5060078;28;20029;-82
2023/05/07 01:19:11;;;;;;;2.30;1.23;;;10.80;99.90;;;;;;5060027;28;20036;-82
2023/05/07 01:21:38;;;;;;;2.08;1.13;;;10.90;99.90;;;;;;5035988;28;20039;-82
2023/05/07 01:24:04;;;;;;;2.80;1.25;;;10.80;99.90;;;;;;5059910;28;20034;-82
2023/05/07 01:26:30;;;;;;;2.97;1.40;;;10.80;99.90;;;;;;5053327;28;20485;-82
2023/05/07 01:28:56;;;;;;;3.95;1.48;;;10.80;99.90;;;;;;5052220;28;20028;-82
2023/05/07 01:31:23;;;;;;;2.25;1.17;;;10.80;99.90;;;;;;5046552;28;20549;-82
2023/05/07 01:33:50;;;;;;;3.63;1.50;;;10.70;99.90;;;;;;5090527;28;20024;-82
2023/05/07 01:36:18;;;;;;;2.55;1.40;;;10.70;99.90;;;;;;5034838;28;20036;-83
2023/05/07 01:38:44;;;;;;;2.05;1.20;;;10.70;99.90;;;;;;5066322;28;20046;-82
2023/05/07 01:41:11;;;;;;;3.97;1.40;;;10.70;99.90;;;;;;5073258;28;20028;-82
2023/05/07 01:43:37;;;;;;;2.05;1.15;;;10.70;99.90;;;;;;5053616;28;20048;-83
2023/05/07 01:46:03;;;;;;;2.10;1.40;;;10.60;99.90;;;;;;5067991;28;20056;-82
2023/05/07 01:48:29;;;;;;;2.00;1.33;;;10.60;99.90;;;;;;5036812;28;20040;-82
2023/05/07 01:50:55;;;;;;;4.28;1.50;;;10.60;99.90;;;;;;5038193;28;20460;-82
2023/05/07 01:53:21;;;;;;;2.25;1.27;;;10.50;99.90;;;;;;5022179;28;20079;-82
2023/05/07 01:55:46;;;;;;;3.13;1.40;;;10.40;99.90;;;;;;5038999;28;20025;-83
2023/05/07 01:58:12;;;;;;;2.20;1.38;;;10.30;99.90;;;;;;5033768;28;20507;-82
2023/05/07 02:00:38;;;;;;;2.50;1.48;;;10.30;99.90;;;;;;5038784;28;20025;-83
2023/05/07 02:03:04;;;;;;;2.25;1.48;;;10.30;99.90;;;;;;5056741;28;20092;-83
2023/05/07 02:05:30;;;;;;;2.72;1.67;;;10.20;99.90;;;;;;5041914;28;20021;-82
2023/05/07 02:07:55;;;;;;;2.25;1.00;;;10.20;99.90;;;;;;5038330;28;20033;-82
2023/05/07 02:10:21;;;;;;;1.98;1.30;;;10.20;99.90;;;;;;5064778;28;20031;-82
2023/05/07 02:12:46;;;;;;;3.50;1.52;;;10.20;99.90;;;;;;5072415;28;20025;-82
2023/05/07 02:15:12;;;;;;;2.30;1.40;;;10.20;99.90;;;;;;5024745;28;20028;-82
2023/05/07 02:18:06;;;;;;;2.47;1.40;;;10.20;99.90;;;;;;5040994;28;20020;-82
2023/05/07 02:20:31;;;;;;;2.42;1.48;;;10.20;99.90;;;;;;5036046;28;20037;-82
2023/05/07 02:22:57;;;;;;;2.00;1.25;;;10.20;99.90;;;;;;5076156;28;20044;-83
2023/05/07 02:25:23;;;;;;;2.85;1.45;;;10.30;99.90;;;;;;5022301;28;20065;-82
2023/05/07 02:27:48;;;;;;;2.17;1.27;;;10.20;99.90;;;;;;5057140;28;20043;-82
2023/05/07 02:30:15;;;;;;;2.22;1.20;;;10.20;99.90;;;;;;5058225;28;20055;-82
2023/05/07 02:32:40;;;;;;;1.65;1.13;;;10.20;99.90;;;;;;5058186;28;20029;-83
2023/05/07 02:35:06;;;;;;;3.38;1.52;;;10.10;99.90;;;;;;5041489;28;20078;-83
2023/05/07 02:37:32;;;;;;;2.42;1.42;;;10.10;99.90;;;;;;5035633;28;20075;-82
2023/05/07 02:39:58;;;;;;;2.40;1.30;;;10.00;99.90;;;;;;5039828;28;20096;-83
2023/05/07 02:42:23;;;;;;;5.95;2.10;;;9.90;99.90;;;;;;5064367;28;20025;-83
2023/05/07 02:44:49;;;;;;;7.28;3.80;;;9.90;99.90;;;;;;5064607;28;20481;-82
2023/05/07 02:47:15;;;;;;;7.35;3.75;;;9.90;99.90;;;;;;5041541;28;20055;-82
2023/05/07 02:49:41;;;;;;;5.55;2.90;;;9.80;99.90;;;;;;5073574;28;20392;-82
2023/05/07 02:52:07;;;;;;;3.85;2.20;;;9.80;99.90;;;;;;5042053;28;20032;-82
2023/05/07 02:54:33;;;;;;;3.95;1.70;;;9.80;99.90;;;;;;5069210;28;20029;-82
2023/05/07 02:57:00;;;;;;;2.80;1.30;;;9.80;99.90;;;;;;5054572;28;20032;-82
2023/05/07 02:59:26;;;;;;;2.58;1.38;;;9.90;99.90;;;;;;5057654;28;20070;-82
2023/05/07 03:01:52;;;;;;;3.10;1.70;;;9.80;99.90;;;;;;5066620;28;20029;-82
2023/05/07 03:04:17;;;;;;;4.32;1.85;;;9.90;99.90;;;;;;5041441;28;20105;-82
2023/05/07 03:06:43;;;;;;;2.72;1.40;;;9.90;99.90;;;;;;5056372;28;20067;-82
2023/05/07 03:09:09;;;;;;;2.28;1.50;;;9.90;99.90;;;;;;5071625;28;20032;-82
2023/05/07 03:11:35;;;;;;;3.45;1.40;;;9.90;99.90;;;;;;5057717;28;20036;-82
2023/05/07 03:14:01;;;;;;;2.88;1.23;;;9.90;99.90;;;;;;5038094;28;20477;-82
2023/05/07 03:16:27;;;;;;;3.10;1.40;;;9.80;99.90;;;;;;5056736;28;20120;-82
2023/05/07 03:18:53;;;;;;;2.10;1.50;;;9.80;99.90;;;;;;5057644;28;20491;-82
2023/05/07 03:21:19;;;;;;;3.53;1.58;;;9.90;99.90;;;;;;5057220;28;20115;-82
2023/05/07 03:23:45;;;;;;;2.15;1.30;;;9.80;99.90;;;;;;5057390;28;20123;-82
2023/05/07 03:26:10;;;;;;;2.03;1.20;;;9.80;99.90;;;;;;5040132;28;20399;-82
2023/05/07 03:28:37;;;;;;;2.15;1.17;;;9.80;99.90;;;;;;5057373;28;20040;-82
2023/05/07 03:31:02;;;;;;;1.75;1.30;;;9.80;99.90;;;;;;5057235;28;20526;-82
2023/05/07 03:33:28;;;;;;;1.85;1.23;;;9.80;99.90;;;;;;5075133;28;20032;-82
2023/05/07 03:35:54;;;;;;;3.28;1.38;;;9.80;99.90;;;;;;5056507;28;20029;-82
2023/05/07 03:38:19;;;;;;;1.85;1.23;;;9.80;99.90;;;;;;5057177;28;20024;-82
2023/05/07 03:40:45;;;;;;;2.30;1.30;;;9.80;99.90;;;;;;5024353;28;20027;-82
2023/05/07 03:43:11;;;;;;;2.25;1.38;;;9.80;99.90;;;;;;5024216;28;20028;-82
2023/05/07 03:45:36;;;;;;;2.75;1.45;;;9.70;99.90;;;;;;5057091;28;20028;-82
2023/05/07 03:48:02;;;;;;;2.58;1.75;;;9.70;99.90;;;;;;5040539;28;20507;-82
2023/05/07 03:50:28;;;;;;;7.32;2.22;;;9.80;99.90;;;;;;5057118;28;20021;-82
2023/05/07 03:52:54;;;;;;;5.95;3.20;;;9.70;99.90;;;;;;5029684;28;20481;-82
2023/05/07 03:55:19;;;;;;;5.03;2.10;;;9.70;99.90;;;;;;5062301;28;20063;-83
2023/05/07 03:57:45;;;;;;;5.10;2.10;;;9.70;99.90;;;;;;5059799;28;20114;-82
2023/05/07 04:00:11;;;;;;;2.47;1.67;;;9.70;99.90;;;;;;5040689;28;20400;-82
2023/05/07 04:02:37;;;;;;;5.07;1.70;;;9.60;99.90;;;;;;5052031;28;20038;-82
2023/05/07 04:05:03;;;;;;;3.78;1.75;;;9.60;99.90;;;;;;5056573;28;20398;-82
2023/05/07 04:07:29;;;;;;;2.38;1.58;;;9.60;99.90;;;;;;5076514;28;20037;-82
2023/05/07 04:09:54;;;;;;;2.95;1.52;;;9.60;99.90;;;;;;5027376;28;20047;-82
2023/05/07 04:12:20;;;;;;;3.35;1.67;;;9.50;99.90;;;;;;5069031;28;20032;-82
2023/05/07 04:14:46;;;;;;;2.72;1.83;;;9.50;99.90;;;;;;5042654;28;20068;-82
2023/05/07 04:17:11;;;;;;;4.45;1.65;;;9.50;99.90;;;;;;5059513;28;20033;-82
2023/05/07 04:19:37;;;;;;;3.53;1.75;;;9.50;99.90;;;;;;5060925;28;20017;-82
2023/05/07 04:22:03;;;;;;;2.75;1.80;;;9.50;99.90;;;;;;5039996;28;20090;-82
2023/05/07 04:24:32;;;;;;;2.30;1.60;;;9.50;99.90;;;;;;5041293;28;20094;-83
2023/05/07 04:26:58;;;;;;;3.70;1.55;;;9.50;99.90;;;;;;5066661;28;20480;-82
2023/05/07 04:29:24;;;;;;;3.03;1.55;;;9.50;99.90;;;;;;5055801;28;20050;-78
2023/05/07 04:31:50;;;;;;;2.33;1.45;;;9.50;99.90;;;;;;5039209;28;20032;-79
2023/05/07 04:34:15;;;;;;;2.00;1.27;;;9.50;99.90;;;;;;5060267;28;20036;-78
2023/05/07 04:36:42;;;;;;;2.08;1.33;;;9.50;99.90;;;;;;5052513;28;20056;-79
2023/05/07 04:39:08;;;;;;;3.40;2.00;;;9.50;99.90;;;;;;5043859;28;20032;-79
2023/05/07 04:41:36;;;;;;;3.20;1.40;;;9.50;99.90;;;;;;5056662;28;20025;-79
2023/05/07 04:44:03;;;;;;;2.35;1.50;;;9.50;99.90;;;;;;5068712;28;20078;-79
2023/05/07 04:46:29;;;;;;;1.95;1.20;;;9.50;99.90;;;;;;5068413;28;20032;-79
2023/05/07 04:48:55;;;;;;;1.52;1.13;;;9.50;99.90;;;;;;5054626;28;20522;-79
2023/05/07 04:51:20;;;;;;;3.60;1.70;;;9.50;99.90;;;;;;5051460;28;20082;-77
2023/05/07 04:53:46;;;;;;;3.28;1.67;;;9.50;99.90;;;;;;5060656;28;20031;-77
2023/05/07 04:56:12;;;;;;;2.35;1.30;;;9.50;99.90;;;;;;5071226;28;20024;-78
2023/05/07 04:58:38;;;;;;;3.30;1.65;;;9.50;99.90;;;;;;5076225;28;20398;-78
2023/05/07 05:01:04;;;;;;;2.80;1.80;;;9.50;99.90;;;;;;5069387;28;20089;-78
2023/05/07 05:03:30;;;;;;;2.58;1.80;;;9.50;99.90;;;;;;5055296;28;20021;-78
2023/05/07 05:05:56;;;;;;;2.17;1.38;;;9.50;99.90;;;;;;5066019;28;20476;-78
2023/05/07 05:08:22;;;;;;;2.03;1.45;;;9.50;99.90;;;;;;5070619;28;20032;-78
2023/05/07 05:10:49;;;;;;;2.85;1.48;;;9.60;99.90;;;;;;5073087;28;20105;-78
2023/05/07 05:13:15;;;;;;;3.75;1.60;;;9.60;99.90;;;;;;5059375;28;20029;-78
2023/05/07 05:15:41;;;;;;;2.75;1.60;;;9.70;99.90;;;;;;5062021;28;20431;-77
2023/05/07 05:18:07;;;;;;;2.35;1.52;;;9.70;99.90;;;;;;5071462;28;20076;-78
2023/05/07 05:20:32;;;;;;;2.53;1.60;;;9.70;99.90;;;;;;5070922;28;20052;-78
2023/05/07 05:22:58;;;;;;;2.53;1.45;;;9.80;99.90;;;;;;5056297;28;20025;-78
2023/05/07 05:25:24;;;;;;;3.88;1.80;;;9.80;99.90;;;;;;5061115;28;20400;-78
2023/05/07 05:27:50;;;;;;;2.70;1.60;;;9.80;99.90;;;;;;5047994;28;20028;-78
2023/05/07 05:30:15;;;;;;;2.83;1.55;;;9.90;99.90;;;;;;5050422;28;20032;-79
2023/05/07 05:32:41;;;;;;;3.17;2.00;;;9.90;99.90;;;;;;5057444;28;20077;-78
2023/05/07 05:35:07;;;;;;;4.68;1.90;;;10.00;99.90;;;;;;5070711;28;20132;-78
2023/05/07 05:37:33;;;;;;;4.45;1.60;;;10.00;99.90;;;;;;5059621;28;20158;-78
2023/05/07 05:39:59;;;;;;;3.13;1.98;;;10.10;99.90;;;;;;5069894;28;20074;-78
2023/05/07 05:42:24;;;;;;;3.20;2.05;;;10.10;99.90;;;;;;5075277;28;20532;-78
2023/05/07 05:44:50;;;;;;;3.65;1.77;;;10.20;99.90;;;;;;5056334;28;20033;-78
2023/05/07 05:47:16;;;;;;;6.65;3.08;;;10.20;99.90;;;;;;5072837;28;20110;-78
2023/05/07 05:49:43;;;;;;;5.70;3.22;;;10.30;99.90;;;;;;5050490;28;20048;-78
2023/05/07 05:52:08;;;;;;;7.32;3.72;;;10.30;99.90;;;;;;5071340;28;20047;-78
2023/05/07 05:54:34;;;;;;;8.23;3.63;;;10.40;99.90;;;;;;5075372;28;20435;-78
2023/05/07 05:57:00;;;;;;;6.45;3.17;;;10.50;99.90;;;;;;5074620;28;20032;-78
2023/05/07 05:59:25;;;;;;;6.80;3.42;;;10.60;99.90;;;;;;5064890;28;20029;-78
2023/05/07 06:01:51;;;;;;;6.65;3.50;;;10.70;99.90;;;;;;5065152;28;20131;-78
2023/05/07 06:04:17;;;;;;;4.82;3.10;;;10.70;99.90;;;;;;5056810;28;20021;-78
2023/05/07 06:06:42;;;;;;;7.30;3.65;;;10.70;99.90;;;;;;5061448;28;21925;-78
2023/05/07 06:09:08;;;;;;;7.20;3.60;;;10.80;99.90;;;;;;5064856;28;20024;-78
2023/05/07 06:11:34;;;;;;;6.60;3.42;;;10.80;99.90;;;;;;5053983;28;20021;-78
2023/05/07 06:13:59;;;;;;;6.43;3.40;;;10.90;99.90;;;;;;5062328;28;20029;-78
2023/05/07 06:16:25;;;;;;;4.53;3.10;;;11.00;99.90;;;;;;5071006;28;20378;-78
2023/05/07 06:18:51;;;;;;;4.57;3.40;;;11.00;99.90;;;;;;5056520;28;20107;-78
2023/05/07 06:21:16;;;;;;;5.65;3.38;;;11.20;99.90;;;;;;5069179;28;20035;-78
2023/05/07 06:23:42;;;;;;;6.00;3.65;;;11.30;99.90;;;;;;5055359;28;20500;-78
2023/05/07 06:26:08;;;;;;;4.18;2.92;;;11.40;99.90;;;;;;5048820;28;20056;-78
2023/05/07 06:28:36;;;;;;;8.07;3.50;;;11.60;99.90;;;;;;5068593;28;20081;-78
2023/05/07 06:31:16;;;;;;;5.15;3.03;;;11.60;99.90;;;;;;5069500;28;20040;-78
2023/05/07 06:33:42;;;;;;;5.35;3.15;;;11.80;99.90;;;;;;5063810;28;20038;-78
2023/05/07 06:36:08;;;;;;;6.20;4.05;;;11.90;99.90;;;;;;5061554;28;20090;-78
2023/05/07 06:38:33;;;;;;;6.35;3.78;;;12.00;99.90;;;;;;5049940;28;20025;-77
2023/05/07 06:40:59;;;;;;;5.15;3.58;;;12.20;99.90;;;;;;5062210;28;20056;-78
2023/05/07 06:43:25;;;;;;;6.80;3.75;;;12.30;99.90;;;;;;5074710;28;20507;-78
2023/05/07 06:45:50;;;;;;;5.43;3.08;;;12.50;99.90;;;;;;5059325;28;20058;-78
2023/05/07 06:48:16;;;;;;;4.25;3.08;;;12.60;99.90;;;;;;5073190;28;20472;-78
2023/05/07 06:50:42;;;;;;;4.15;3.22;;;12.80;99.90;;;;;;5069249;28;20405;-78
2023/05/07 06:53:08;;;;;;;5.85;3.70;;;12.90;99.90;;;;;;5067089;28;20044;-78
2023/05/07 06:55:33;;;;;;;4.95;3.42;;;13.00;99.90;;;;;;5067290;28;20092;-78
2023/05/07 06:58:00;;;;;;;4.47;3.75;;;13.10;99.90;;;;;;5068015;28;20021;-78
2023/05/07 07:00:27;;;;;;;5.90;4.15;;;13.20;99.90;;;;;;5055566;28;20032;-78
2023/05/07 07:02:54;;;;;;;6.00;3.50;;;13.30;99.90;;;;;;5069962;28;20027;-78
2023/05/07 07:05:20;;;;;;;6.30;4.20;;;13.40;99.90;;;;;;5059632;28;20061;-78
2023/05/07 07:07:52;;;;;;;5.30;3.78;;;13.60;99.90;;;;;;5055351;28;20497;-78
2023/05/07 07:10:19;;;;;;;5.05;3.03;;;13.60;99.90;;;;;;5059397;28;20032;-78
2023/05/07 07:12:45;;;;;;;2.95;2.20;;;13.80;99.90;;;;;;5062044;28;20044;-78
2023/05/07 07:15:11;;;;;;;4.55;2.90;;;13.90;99.90;;;;;;5057767;28;20025;-78
2023/05/07 07:17:36;;;;;;;5.15;2.80;;;14.10;99.90;;;;;;5057198;28;20078;-78
2023/05/07 07:20:02;;;;;;;5.65;3.10;;;14.20;99.90;;;;;;5053688;28;20044;-78
2023/05/07 07:22:29;;;;;;;3.40;2.45;;;14.40;99.90;;;;;;5065475;28;20021;-78
2023/05/07 07:24:54;;;;;;;5.35;2.90;;;14.50;99.90;;;;;;5074680;28;20045;-78
2023/05/07 07:27:20;;;;;;;4.70;3.42;;;14.60;99.90;;;;;;5076522;28;20496;-78
2023/05/07 07:29:46;;;;;;;4.85;3.22;;;14.70;99.90;;;;;;5077939;28;20044;-78
2023/05/07 07:32:12;;;;;;;3.63;2.58;;;14.90;99.90;;;;;;5068373;28;20033;-78
2023/05/07 07:34:37;;;;;;;4.53;3.05;;;15.00;99.90;;;;;;5077059;28;20369;-78
2023/05/07 07:37:05;;;;;;;4.78;2.70;;;15.10;99.90;;;;;;5080857;28;20039;-78
2023/05/07 07:39:32;;;;;;;5.40;2.58;;;15.20;99.90;;;;;;5063134;28;20514;-78
2023/05/07 07:41:57;;;;;;;7.20;3.33;;;15.30;99.90;;;;;;5079387;28;20036;-78
2023/05/07 07:44:23;;;;;;;3.78;2.47;;;15.50;99.90;;;;;;5081013;28;20481;-78
2023/05/07 07:46:50;;;;;;;5.25;2.20;;;15.60;99.90;;;;;;5081001;28;20086;-78
2023/05/07 07:49:16;;;;;;;3.00;1.90;;;15.70;99.90;;;;;;5079509;28;20025;-78
2023/05/07 07:51:42;;;;;;;4.15;2.42;;;15.80;99.90;;;;;;5080564;28;20029;-78
2023/05/07 07:54:07;;;;;;;5.88;2.42;;;15.90;99.90;;;;;;5062256;28;20029;-78
2023/05/07 07:56:33;;;;;;;3.97;2.15;;;16.00;99.90;;;;;;5072907;28;20033;-78
2023/05/07 07:58:59;;;;;;;2.72;1.65;;;16.20;99.90;;;;;;5062148;28;20028;-78
2023/05/07 08:01:26;;;;;;;3.60;1.80;;;16.30;99.90;;;;;;5071506;28;20028;-79
2023/05/07 08:03:51;;;;;;;4.18;1.80;;;16.40;99.90;;;;;;5047360;28;20031;-78
2023/05/07 08:06:18;;;;;;;3.70;1.80;;;16.60;99.90;;;;;;5059865;28;20385;-78
2023/05/07 08:08:43;;;;;;;3.40;1.90;;;16.80;99.90;;;;;;5060223;28;20029;-78
2023/05/07 08:11:10;;;;;;;3.45;1.58;;;16.90;99.90;;;;;;5025605;28;20029;-78
2023/05/07 08:13:36;;;;;;;3.90;1.80;;;17.10;99.90;;;;;;5048223;28;20116;-78
2023/05/07 08:16:02;;;;;;;3.95;1.63;;;17.20;99.90;;;;;;5059295;28;20029;-78
2023/05/07 08:18:28;;;;;;;3.22;1.60;;;17.30;99.90;;;;;;5041078;28;20108;-78
2023/05/07 08:20:54;;;;;;;5.22;1.80;;;17.50;99.90;;;;;;5058588;28;20151;-78
2023/05/07 08:23:21;;;;;;;3.83;1.80;;;17.60;99.90;;;;;;5060353;28;20029;-78
2023/05/07 08:25:48;;;;;;;4.43;1.80;;;17.70;99.90;;;;;;5079644;28;20021;-78
2023/05/07 08:28:13;;;;;;;4.53;1.35;;;17.90;99.90;;;;;;5061944;28;20067;-78
2023/05/07 08:30:39;;;;;;;2.78;1.83;;;18.10;99.90;;;;;;5060887;28;20024;-78
2023/05/07 08:33:05;;;;;;;3.83;1.48;;;18.20;99.90;;;;;;5062059;28;20025;-78
2023/05/07 08:35:30;;;;;;;3.22;1.58;;;18.40;99.90;;;;;;5079168;28;20021;-78
2023/05/07 08:37:56;;;;;;;2.83;1.38;;;18.50;99.90;;;;;;5040580;28;20044;-78
2023/05/07 08:40:25;;;;;;;3.13;1.13;;;18.60;99.90;;;;;;5057856;28;20025;-78
2023/05/07 08:42:53;;;;;;;6.10;1.50;;;18.70;99.90;;;;;;5062184;28;20021;-78
2023/05/07 08:45:20;;;;;;;3.45;1.58;;;18.90;99.90;;;;;;5077276;28;20048;-78
2023/05/07 08:47:58;;;;;;;4.65;1.70;;;19.00;99.90;;;;;;5061581;28;20035;-78
2023/05/07 08:50:23;;;;;;;2.13;1.23;;;19.10;99.90;;;;;;5079658;28;20028;-78
2023/05/07 08:52:49;;;;;;;1.98;1.20;;;19.20;99.90;;;;;;5060693;28;20033;-78
2023/05/07 08:55:15;;;;;;;2.75;1.33;;;19.30;99.90;;;;;;5078754;28;20552;-78
2023/05/07 08:57:41;;;;;;;2.63;1.33;;;19.30;99.90;;;;;;5078530;28;20497;-78
2023/05/07 09:00:07;;;;;;;3.35;1.60;;;19.40;99.90;;;;;;5079293;28;20028;-78
2023/05/07 09:02:36;;;;;;;4.15;1.48;;;19.50;99.90;;;;;;5078644;28;20020;-78
2023/05/07 09:05:02;;;;;;;2.95;1.40;;;19.60;99.90;;;;;;5079143;28;20062;-78
2023/05/07 09:07:28;;;;;;;3.67;1.50;;;19.80;99.90;;;;;;5077756;28;20033;-78
2023/05/07 09:09:57;;;;;;;2.65;1.20;;;20.00;99.90;;;;;;5074307;28;20104;-78
2023/05/07 09:12:23;;;;;;;2.10;1.13;;;20.00;99.90;;;;;;5064266;28;20052;-78
2023/05/07 09:14:49;;;;;;;2.58;1.00;;;20.20;99.90;;;;;;5057080;28;20029;-77
2023/05/07 09:17:18;;;;;;;1.73;1.10;;;20.30;99.90;;;;;;5057268;28;20067;-78
2023/05/07 09:19:48;;;;;;;1.75;1.05;;;20.40;99.90;;;;;;5058910;28;20036;-78
2023/05/07 09:22:14;;;;;;;3.67;1.08;;;20.50;99.90;;;;;;5079099;28;20021;-78
2023/05/07 09:24:40;;;;;;;4.35;1.00;;;20.60;98.70;;;;;;5078361;28;20150;-77
2023/05/07 09:27:08;;;;;;;2.60;1.10;;;20.60;99.10;;;;;;5077150;28;20032;-80
2023/05/07 09:29:36;;;;;;;1.95;0.90;;;20.80;99.90;;;;;;5077615;28;20871;-78
2023/05/07 09:32:04;;;;;;;2.65;1.10;;;20.90;98.60;;;;;;5060682;28;20041;-78
2023/05/07 09:34:30;;;;;;;4.28;1.20;;;21.00;97.60;;;;;;5077937;28;20040;-77
2023/05/07 09:36:58;;;;;;;1.75;1.08;;;21.00;96.90;;;;;;5057379;28;20078;-78
2023/05/07 09:39:25;;;;;;;2.05;1.10;;;21.10;95.80;;;;;;5078213;28;20518;-78
2023/05/07 09:41:54;;;;;;;2.67;1.30;;;21.20;96.40;;;;;;5068778;28;20116;-78
2023/05/07 09:44:20;;;;;;;2.72;1.00;;;21.40;95.60;;;;;;5065650;28;20032;-78
2023/05/07 09:46:50;;;;;;;2.78;1.10;;;21.50;96.30;;;;;;5057908;28;20033;-77
2023/05/07 09:49:21;;;;;;;1.25;0.90;;;21.70;95.30;;;;;;5068095;28;20021;-77
2023/05/07 09:51:51;;;;;;;2.72;1.00;;;21.80;95.30;;;;;;5060221;28;20036;-78
2023/05/07 09:54:18;;;;;;;2.30;1.08;;;21.90;94.50;;;;;;5078649;28;20050;-77
2023/05/07 09:56:45;;;;;;;2.17;1.20;;;22.00;94.10;;;;;;5060115;28;20033;-78
2023/05/07 09:59:16;;;;;;;2.22;1.23;;;21.90;90.20;;;;;;5077580;28;20048;-78
2023/05/07 10:01:43;;;;;;;1.83;1.10;;;21.90;91.10;;;;;;5064573;28;20017;-78
2023/05/07 10:04:10;;;;;;;5.20;1.20;;;22.00;91.10;;;;;;5068994;28;20375;-77
2023/05/07 10:06:37;;;;;;;2.72;1.13;;;22.10;90.00;;;;;;5093388;28;20040;-78
2023/05/07 10:09:07;;;;;;;2.28;1.23;;;22.10;90.60;;;;;;5063604;28;20107;-78
2023/05/07 10:11:36;;;;;;;2.80;1.15;;;22.20;90.80;;;;;;5098251;28;20078;-77
2023/05/07 10:14:05;;;;;;;4.85;1.23;;;22.50;90.20;;;;;;5080210;28;20024;-77
2023/05/07 10:16:36;;;;;;;3.40;1.27;;;22.60;87.30;;;;;;5098277;28;20062;-78
2023/05/07 10:19:03;;;;;;;2.53;1.30;;;22.80;89.40;;;;;;5060544;28;20063;-77
2023/05/07 10:21:31;;;;;;;2.15;1.20;;;22.90;89.40;;;;;;5059507;28;20028;-77
2023/05/07 10:24:05;;;;;;;;;;;23.20;90.60;;;;;;5059540;28;20052;-77
2023/05/07 10:26:32;;;;;;;;;;;23.30;85.50;;;;;;5076509;28;19905;-77
2023/05/07 10:29:03;;;;;;;;;;;23.30;85.60;;;;;;5077349;28;19927;-77
2023/05/07 10:31:28;;;;;;;;;;;23.40;82.30;;;;;;5058879;28;20031;-78
2023/05/07 10:33:55;;;;;;;;;;;23.50;84.00;;;;;;5077361;28;19956;-78
2023/05/07 10:36:21;;;;;;;;;;;23.60;81.60;;;;;;5078099;28;19919;-78
2023/05/07 10:38:47;;;;;;;;;;;23.60;79.70;;;;;;5071861;28;19912;-77
2023/05/07 10:41:13;;;;;;;;;;;23.70;84.30;;;;;;5062820;28;20273;-78
2023/05/07 10:43:42;;;;;;;;;;;23.70;78.80;;;;;;5049023;28;19912;-78
2023/05/07 10:46:15;;;;;;;;;;;23.80;83.40;;;;;;5075471;28;19913;-77
2023/05/07 10:48:59;;;;;;;;;;;23.90;82.00;;;;;;5076535;28;19912;-77
2023/05/07 10:51:25;;;;;;;;;;;23.90;78.10;;;;;;5060878;28;20040;-77
2023/05/07 10:54:14;;;;;;;;;;;23.80;78.90;;;;;;5075483;28;20065;-77
2023/05/07 10:56:43;;;;;;;;;;;23.70;74.30;;;;;;5075823;28;20090;-77
2023/05/07 10:59:20;;;;;;;;;;;23.50;75.40;;;;;;5072261;28;20519;-78
2023/05/07 11:01:53;;;;;;;;;;;23.50;76.90;;;;;;5058678;28;20119;-77
2023/05/07 11:04:24;;;;;;;;;;;23.40;75.30;;;;;;5086919;28;20141;-77
2023/05/07 11:07:18;;;;;;;1.80;0.80;;;23.30;78.60;;;;;;5094788;28;20070;-77
2023/05/07 11:10:05;;;;;;;2.00;0.90;;;23.20;79.10;;;;;;5088488;28;20053;-77
2023/05/07 11:12:40;;;;;;;;;;;23.00;79.30;;;;;;5094722;28;20051;-77
2023/05/07 11:15:10;;;;;;;2.60;0.80;;;22.80;78.40;;;;;;5075063;28;20408;-77
2023/05/07 11:17:56;;;;;;;1.65;0.70;;;22.70;81.20;;;;;;5061657;28;20081;-77
2023/05/07 11:20:44;;;;;;;2.10;1.00;;;22.60;78.70;;;;;;5074951;28;20039;-77
2023/05/07 11:23:35;;;;;;;3.10;1.30;;;22.50;80.60;;;;;;5057539;28;20135;-77
2023/05/07 11:26:05;;;;;;;2.40;0.80;;;22.30;82.30;;;;;;5075214;28;20365;-77
2023/05/07 11:28:35;;;;;;;;;;;22.20;83.20;;;;;;5073991;28;24145;-78
2023/05/07 11:31:01;;;;;;;;;;;22.20;81.80;;;;;;5072534;28;19909;-77
2023/05/07 11:33:26;;;;;;;;;;;22.00;84.80;;;;;;5061783;28;24062;-77
2023/05/07 11:35:55;;;;;;;;;;;21.80;85.80;;;;;;5036691;28;19915;-77
2023/05/07 11:38:21;;;;;;;;;;;21.70;85.80;;;;;;5036136;28;19963;-77
2023/05/07 11:40:54;;;;;;;;;;;21.50;86.30;;;;;;5054186;28;19904;-77
2023/05/07 11:43:20;;;;;;;;;;;21.40;86.60;;;;;;5061479;28;20360;-77
2023/05/07 11:45:46;;;;;;;;;;;21.30;89.20;;;;;;5068620;28;19982;-77
2023/05/07 11:48:13;;;;;;;;;;;21.30;89.50;;;;;;5059125;28;19904;-77
2023/05/07 11:50:52;;;;;;;;;;;21.30;90.00;;;;;;5053535;28;19904;-77
2023/05/07 11:53:18;;;;;;;;;;;21.30;89.60;;;;;;5037524;28;19909;-77
2023/05/07 11:55:44;;;;;;;;;;;21.20;90.70;;;;;;5059621;28;19936;-77
2023/05/07 11:58:10;;;;;;;;;;;21.10;90.40;;;;;;5060487;28;19951;-77
2023/05/07 12:00:36;;;;;;;2.90;1.10;;;21.10;90.30;;;;;;5051770;28;19912;-77
2023/05/07 12:03:05;;;;;;;;;;;21.10;90.80;;;;;;5035929;28;19908;-77
2023/05/07 12:05:30;;;;;;;;;;;21.10;90.90;;;;;;5060277;28;20461;-77
2023/05/07 12:07:57;;;;;;;;;;;21.20;91.50;;;;;;5066437;28;19952;-77
2023/05/07 12:10:24;;;;;;;;;;;21.40;90.90;;;;;;5072520;28;20360;-77
2023/05/07 12:12:50;;;;;;;;;;;21.60;90.00;;;;;;5075621;28;19943;-77
2023/05/07 12:15:16;;;;;;;;;;;21.50;89.20;;;;;;5095772;28;19916;-77
2023/05/07 12:17:42;;;;;;;;;;;21.40;90.30;;;;;;5096616;28;19908;-77
2023/05/07 12:20:09;;;;;;;3.10;1.27;;;21.40;90.00;;;;;;5098594;28;20044;-77
2023/05/07 12:22:35;;;;;;;;;;;21.40;90.70;;;;;;5096375;28;19950;-77
2023/05/07 12:25:00;;;;;;;;;;;21.50;90.50;;;;;;5096801;28;19908;-77
2023/05/07 12:27:26;;;;;;;;;;;21.50;90.80;;;;;;5063889;28;20260;-77
2023/05/07 12:29:51;;;;;;;;;;;21.50;91.20;;;;;;5077302;28;20108;-77
2023/05/07 12:32:18;;;;;;;;;;;21.60;90.60;;;;;;5076301;28;20382;-77
2023/05/07 12:34:43;;;;;;;;;;;21.80;90.90;;;;;;5077484;28;19909;-77
2023/05/07 12:37:09;;;;;;;;;;;22.00;91.20;;;;;;5063646;28;20036;-77
2023/05/07 12:39:35;;;;;;;;;;;22.10;90.30;;;;;;5065592;28;19921;-78
2023/05/07 12:42:01;;;;;;;;;;;22.10;89.50;;;;;;5071283;28;20006;-77
2023/05/07 12:44:30;;;;;;;;;;;22.10;89.00;;;;;;5092960;28;19996;-77
2023/05/07 12:46:56;;;;;;;;;;;22.00;90.00;;;;;;5096568;28;19911;-77
2023/05/07 12:49:22;;;;;;;;;;;21.90;89.30;;;;;;5095710;28;19904;-77
2023/05/07 12:51:48;;;;;;;;;;;21.70;90.20;;;;;;5095743;28;19986;-77
2023/05/07 12:54:27;;;;;;;;;;;21.70;90.70;;;;;;5096159;28;20003;-77
2023/05/07 12:57:00;;;;;;;;;;;21.80;90.30;;;;;;5055305;28;19948;-77
2023/05/07 12:59:38;;;;;;;;;;;21.80;90.70;;;;;;5055557;28;19915;-77
2023/05/07 13:02:04;;;;;;;;;;;21.90;90.90;;;;;;5055108;28;19948;-77